MMTP/TAP METAR and TAF weather

Enter ICAO airport designator
Station Type Date Time Source
MMTP METAR 2022/05/26 03:40 UTC NOAA

MMTP 260340Z 07006KT 10SM OVC200 25/25 A2988 RMK 8/006 HZY


Station Type Date Time Source
MMTP Decoded METAR 2022/05/26 03:40 UTC NOAA

Tapachula , Mexico (MMTP) 14-47N 092-23W
May 25, 2022 - 11:40 PM EDT / 2022.05.26 0340 UTC
Wind: from the ENE (070 degrees) at 7 MPH (6 KT):0
Visibility: 10 mile(s):0
Sky conditions: overcast
Temperature: 77 F (25 C)
Dew Point: 77 F (25 C)
Relative Humidity: 100%
Pressure (altimeter): 29.88 in. Hg (1011 hPa)
ob: MMTP 260340Z 07006KT 10SM OVC200 25/25 A2988 RMK 8/006 HZY
cycle: 3

Station Type Date Time Source
MMTP TAF 2022/05/26 06:58 UTC NOAA

TAF MMTP 260358Z 2606/2712 08005KT P6SM SCT015 BKN200
FM261700 24010KT P6SM SCT020 BKN080
FM262200 24010KT P6SM BKN020CB BKN080 PROB40 2622/2702 5SM TSRA

Example: see airport list